Aérodrome :
LOGIN :

S'inscrire | Disclaimer

   EN    FR    IT 

 










Légende :    VFR   VFR Marginal   IFR   IFR Intensif   IFR Très Intensif
Visi : 
Plafond : 
>= 8 km
>= 3000ft
5 à 8 km
1000 à 3000 ft
1500m à 5 km
500 à 1000 ft
800 à 1500m
200 à 500 ft
< 800m
< 200 ft
Symboles :   Orages  Brouillard  Fortes neiges  Fortes précipitations  Vent > 20 kt
SIGMETs :   Divers  Orages  Givrage  Turbulence  Onde Orograph.  Cendres Volcan.






- Altitude de l'aérodrome : 636 ft


LPBJ - Beja Air Base

DERNIER METAR :
  • 141617Z 30014KT FEW020 SCT025 FEW028CB 12/08 Q1011

METARs EXPIRÉS :
  • 141600Z 31013KT 9999 FEW025 12/07 Q1011
  • 141435Z 30010KT 9999 FEW020 FEW025CB FEW026TCU SCT040 10/08 Q1011
  • 141423Z 32016G32KT 290V350 9999 -SHRA SCT020 SCT025CB FEW026TCU BKN040 10/07 Q1011
  • 141400Z 34011KT 9999 FEW008 SCT020 SCT025CB FEW026TCU BKN040 11/08 Q1012

TAF TAF LPBJ
Valide du 14 à 12h jusqu'au 15 à 12h UTC


141110Z 1412/1512 31015KT 9999 SCT020
TEMPO 1412/1421 32020G30KT
PROB30
TEMPO 1412/1418 32022G38KT 7000 SHRA SCT018 FEW020CB



MET'MAP, la Météo Aéronautique d'un coup d'oeil ! - Copyright ORBIFLY Décembre 2007 - Disclaimer

ORBIFLY MET'MAP TEAM :

Programmation & Développement : Alexandra Zaïnal
Conception & Développement : Baudouin d'Aumeries
Co-Programmation & Développement : Marc-Olivier Méhu
Soutien technique & logistique : Manuel Goepfert

Contact : metmap@orbifly.com




SOURCES & CREDITS :

   NOAA